createdAt,value
2022-08-31T00:00:20.203Z,31.35
2022-08-31T00:01:40.851Z,31.41
2022-08-31T00:03:01.594Z,31.50
2022-08-31T00:04:04.078Z,31.83
2022-08-31T00:05:06.087Z,31.82
2022-08-31T00:06:07.874Z,31.87
2022-08-31T00:07:09.602Z,32.00
2022-08-31T00:08:11.481Z,31.54
2022-08-31T00:09:13.317Z,32.23
2022-08-31T00:10:18.407Z,31.55
2022-08-31T00:11:28.213Z,31.97
2022-08-31T00:12:30.118Z,32.11
2022-08-31T00:13:32.576Z,31.87
2022-08-31T00:14:34.391Z,31.47
2022-08-31T00:15:36.401Z,31.87
2022-08-31T00:16:40.724Z,32.00
2022-08-31T00:17:43.025Z,31.84
2022-08-31T00:18:44.803Z,32.17
2022-08-31T00:19:46.609Z,32.01
2022-08-31T00:20:48.918Z,31.69
2022-08-31T00:21:50.626Z,31.54
2022-08-31T00:22:52.398Z,31.64
2022-08-31T00:23:55.445Z,31.93
2022-08-31T00:24:57.167Z,32.13
2022-08-31T00:25:59.317Z,31.88
2022-08-31T00:27:01.219Z,31.79
2022-08-31T00:28:04.542Z,31.67
2022-08-31T00:29:06.786Z,31.94
2022-08-31T00:30:09.628Z,32.02
2022-08-31T00:31:11.478Z,31.74
2022-08-31T00:32:13.473Z,31.55
2022-08-31T00:33:15.932Z,31.92
2022-08-31T00:34:17.758Z,31.88
2022-08-31T00:35:20.004Z,31.93
2022-08-31T00:36:23.462Z,32.29
2022-08-31T00:37:26.087Z,31.75
2022-08-31T00:38:27.827Z,31.89
2022-08-31T00:39:30.770Z,31.81
2022-08-31T00:40:33.190Z,31.95
2022-08-31T00:41:47.920Z,31.96
2022-08-31T00:42:49.773Z,31.47
2022-08-31T00:43:55.844Z,31.90
2022-08-31T00:44:57.618Z,31.72
2022-08-31T00:45:59.391Z,32.09
2022-08-31T00:47:01.580Z,31.91
2022-08-31T00:48:03.816Z,31.72
2022-08-31T00:49:10.527Z,31.68
2022-08-31T00:50:16.195Z,31.91
2022-08-31T00:51:18.961Z,32.25
2022-08-31T00:52:29.354Z,32.06
2022-08-31T00:53:36.255Z,31.66
2022-08-31T00:54:48.218Z,32.34
2022-08-31T00:55:50.266Z,32.10
2022-08-31T00:56:53.062Z,31.84
2022-08-31T00:57:57.207Z,31.90
2022-08-31T00:59:00.318Z,31.74
2022-08-31T01:00:08.819Z,32.41
2022-08-31T01:01:12.156Z,32.09
2022-08-31T01:02:14.260Z,32.29
2022-08-31T01:03:16.855Z,32.24
2022-08-31T01:04:19.043Z,32.37
2022-08-31T01:05:21.142Z,32.31
2022-08-31T01:06:24.059Z,31.96
2022-08-31T01:07:26.767Z,31.88
2022-08-31T01:08:30.735Z,32.24
2022-08-31T01:09:36.646Z,31.87
2022-08-31T01:10:43.898Z,32.19
2022-08-31T01:11:46.098Z,32.22
2022-08-31T01:12:51.022Z,32.19
2022-08-31T01:13:53.321Z,31.93
2022-08-31T01:14:56.170Z,32.11
2022-08-31T01:16:03.631Z,32.23
2022-08-31T01:17:06.838Z,31.95
2022-08-31T01:18:08.952Z,32.10
2022-08-31T01:19:28.627Z,31.80
2022-08-31T01:20:49.455Z,32.13
2022-08-31T01:22:02.374Z,31.78
2022-08-31T01:23:09.721Z,32.08
2022-08-31T01:24:13.341Z,32.53
2022-08-31T01:25:15.676Z,31.96
2022-08-31T01:26:21.850Z,32.22
2022-08-31T01:27:27.294Z,31.97
2022-08-31T01:28:29.167Z,31.87
2022-08-31T01:29:32.542Z,32.13
2022-08-31T01:30:35.776Z,32.16
2022-08-31T01:31:44.589Z,32.00
2022-08-31T01:32:46.434Z,32.21
2022-08-31T01:33:48.435Z,32.20
2022-08-31T01:34:50.242Z,32.15
2022-08-31T01:35:52.094Z,31.94
2022-08-31T01:36:54.265Z,32.23
2022-08-31T01:37:57.663Z,32.33
2022-08-31T01:38:59.449Z,32.28
2022-08-31T01:40:01.412Z,32.51
2022-08-31T01:41:04.227Z,31.95
2022-08-31T01:42:06.285Z,32.24
2022-08-31T01:43:08.062Z,32.37
2022-08-31T01:44:13.099Z,32.28
2022-08-31T01:45:15.044Z,32.49
2022-08-31T01:46:16.876Z,32.01
2022-08-31T01:47:18.704Z,32.33
2022-08-31T01:48:24.389Z,32.51
2022-08-31T01:49:26.578Z,32.19
2022-08-31T01:50:28.374Z,32.40
2022-08-31T01:51:30.322Z,32.30
2022-08-31T01:52:34.206Z,32.18
2022-08-31T01:53:36.100Z,31.99
2022-08-31T01:54:39.577Z,32.34
2022-08-31T01:55:42.654Z,32.43
2022-08-31T01:56:47.378Z,32.37
2022-08-31T01:57:57.680Z,32.35
2022-08-31T01:59:20.155Z,32.23
2022-08-31T02:00:35.364Z,32.23
2022-08-31T02:01:42.593Z,32.22
2022-08-31T02:02:44.666Z,31.97
2022-08-31T02:03:46.718Z,32.62
2022-08-31T02:04:48.498Z,31.95
2022-08-31T02:05:50.320Z,32.18
2022-08-31T02:06:55.243Z,32.18
2022-08-31T02:07:57.750Z,32.11
2022-08-31T02:09:00.393Z,32.08
2022-08-31T02:10:02.265Z,32.69
2022-08-31T02:11:06.550Z,32.29
2022-08-31T02:12:08.327Z,32.49
2022-08-31T02:13:14.955Z,32.05
2022-08-31T02:14:17.606Z,32.17
2022-08-31T02:15:20.928Z,32.22
2022-08-31T02:16:23.204Z,32.34
2022-08-31T02:17:25.279Z,32.34
2022-08-31T02:18:27.723Z,32.10
2022-08-31T02:19:29.538Z,32.47
2022-08-31T02:20:31.537Z,32.04
2022-08-31T02:21:33.626Z,32.39
2022-08-31T02:22:38.977Z,32.39
2022-08-31T02:23:41.874Z,32.50
2022-08-31T02:24:43.714Z,32.19
2022-08-31T02:25:46.162Z,32.45
2022-08-31T02:26:51.743Z,32.13
2022-08-31T02:27:55.724Z,32.28
2022-08-31T02:28:57.946Z,32.09
2022-08-31T02:30:00.082Z,32.27
2022-08-31T02:31:02.069Z,32.18
2022-08-31T02:32:06.595Z,32.13
2022-08-31T02:33:09.267Z,32.08
2022-08-31T02:34:11.468Z,32.55
2022-08-31T02:35:14.010Z,32.42
2022-08-31T02:36:16.734Z,32.24
2022-08-31T02:37:19.071Z,32.15
2022-08-31T02:38:23.872Z,32.31
2022-08-31T02:39:25.971Z,32.69
2022-08-31T02:40:29.844Z,32.39
2022-08-31T02:41:31.712Z,32.09
2022-08-31T02:42:53.331Z,32.35
2022-08-31T02:43:55.831Z,32.35
2022-08-31T02:44:57.731Z,32.22
2022-08-31T02:45:59.765Z,32.31
2022-08-31T02:47:07.730Z,32.44
2022-08-31T02:48:18.571Z,32.61
2022-08-31T02:49:21.687Z,32.36
2022-08-31T02:50:24.644Z,32.30
2022-08-31T02:51:26.398Z,32.53
2022-08-31T02:52:28.263Z,32.71
2022-08-31T02:53:30.215Z,32.48
2022-08-31T02:54:32.271Z,32.35
2022-08-31T02:55:34.214Z,32.41
2022-08-31T02:56:36.021Z,32.74
2022-08-31T02:57:37.938Z,32.16
2022-08-31T02:58:40.896Z,32.49
2022-08-31T02:59:42.710Z,32.56
2022-08-31T03:00:47.040Z,32.26
2022-08-31T03:01:55.917Z,32.23
2022-08-31T03:02:58.420Z,32.63
2022-08-31T03:04:01.015Z,32.53
2022-08-31T03:05:04.399Z,32.52
2022-08-31T03:06:06.459Z,32.65
2022-08-31T03:07:08.608Z,32.39
2022-08-31T03:08:11.056Z,32.33
2022-08-31T03:09:13.215Z,32.65
2022-08-31T03:10:16.330Z,32.76
2022-08-31T03:11:20.227Z,32.25
2022-08-31T03:12:22.182Z,32.11
2022-08-31T03:13:24.015Z,32.40
2022-08-31T03:14:26.716Z,32.72
2022-08-31T03:15:30.124Z,32.43
2022-08-31T03:16:32.819Z,32.54
2022-08-31T03:17:35.655Z,32.41
2022-08-31T03:18:37.475Z,32.72
2022-08-31T03:19:39.228Z,32.44
2022-08-31T03:20:41.015Z,32.42
2022-08-31T03:21:42.765Z,32.63
2022-08-31T03:22:45.594Z,32.39
2022-08-31T03:23:48.358Z,32.66
2022-08-31T03:24:50.260Z,32.53
2022-08-31T03:25:52.224Z,32.82
2022-08-31T03:26:54.978Z,32.44
2022-08-31T03:27:56.998Z,32.29
2022-08-31T03:28:58.747Z,32.80
2022-08-31T03:30:27.526Z,32.39
2022-08-31T03:31:38.645Z,32.38
2022-08-31T03:32:41.080Z,32.14
2022-08-31T03:33:42.906Z,32.37
2022-08-31T03:34:44.735Z,32.57
2022-08-31T03:35:46.532Z,32.58
2022-08-31T03:36:50.265Z,32.59
2022-08-31T03:37:52.079Z,32.34
2022-08-31T03:38:54.017Z,32.33
2022-08-31T03:39:57.432Z,32.39
2022-08-31T03:40:59.457Z,32.90
2022-08-31T03:42:01.352Z,32.57
2022-08-31T03:43:03.275Z,32.79
2022-08-31T03:44:06.153Z,32.46
2022-08-31T03:45:08.764Z,32.55
2022-08-31T03:46:12.462Z,32.32
2022-08-31T03:47:17.519Z,32.57
2022-08-31T03:48:19.278Z,32.58
2022-08-31T03:49:22.277Z,32.56
2022-08-31T03:50:43.178Z,32.57
2022-08-31T03:51:53.371Z,32.57
2022-08-31T03:52:56.935Z,32.35
2022-08-31T03:53:58.913Z,32.68
2022-08-31T03:55:00.841Z,32.52
2022-08-31T03:56:05.111Z,32.55
2022-08-31T03:57:10.199Z,32.68
2022-08-31T03:58:12.551Z,32.37
2022-08-31T03:59:14.762Z,32.33
2022-08-31T04:00:54.503Z,32.36
2022-08-31T04:02:16.308Z,32.26
2022-08-31T04:03:36.752Z,32.50
2022-08-31T04:05:08.318Z,32.20
2022-08-31T04:06:29.707Z,32.20
2022-08-31T04:08:06.774Z,32.13
2022-08-31T04:09:20.495Z,32.67
2022-08-31T04:10:44.489Z,32.19
2022-08-31T04:12:04.747Z,32.30
2022-08-31T04:13:15.530Z,32.19
2022-08-31T04:14:43.408Z,32.33
2022-08-31T04:16:21.336Z,32.41
2022-08-31T04:17:26.267Z,32.29
2022-08-31T04:18:37.224Z,32.51
2022-08-31T04:19:41.367Z,32.51
2022-08-31T04:20:58.075Z,32.58
2022-08-31T04:21:59.903Z,32.71
2022-08-31T04:23:05.187Z,32.23
2022-08-31T04:24:09.232Z,32.84
2022-08-31T04:25:11.023Z,32.84
2022-08-31T04:26:31.315Z,32.69
2022-08-31T04:27:35.667Z,32.84
2022-08-31T04:28:37.428Z,32.43
2022-08-31T04:29:39.794Z,32.41
2022-08-31T04:30:43.213Z,32.33
2022-08-31T04:31:48.964Z,32.86
2022-08-31T04:32:53.923Z,32.30
2022-08-31T04:33:57.268Z,32.85
2022-08-31T04:34:59.695Z,32.60
2022-08-31T04:36:05.757Z,32.36
2022-08-31T04:37:10.354Z,32.55
2022-08-31T04:38:12.528Z,32.79
2022-08-31T04:39:16.650Z,32.34
2022-08-31T04:40:20.425Z,32.89
2022-08-31T04:41:29.859Z,32.45
2022-08-31T04:42:31.819Z,32.59
2022-08-31T04:43:33.678Z,32.54
2022-08-31T04:44:35.563Z,32.50
2022-08-31T04:45:44.616Z,32.63
2022-08-31T04:46:48.918Z,32.49
2022-08-31T04:47:50.685Z,32.61
2022-08-31T04:48:53.319Z,32.66
2022-08-31T04:49:55.730Z,32.33
2022-08-31T04:51:15.074Z,32.61
2022-08-31T04:52:16.882Z,32.44
2022-08-31T04:53:18.731Z,32.70
2022-08-31T04:54:20.701Z,32.86
2022-08-31T04:55:22.483Z,32.77
2022-08-31T04:56:33.442Z,32.84
2022-08-31T04:57:35.990Z,32.56
2022-08-31T04:58:37.858Z,32.51
2022-08-31T04:59:39.623Z,32.63
2022-08-31T05:01:00.150Z,32.43
2022-08-31T05:02:27.650Z,32.48
2022-08-31T05:03:37.935Z,32.65
2022-08-31T05:04:39.851Z,32.66
2022-08-31T05:05:42.097Z,32.75
2022-08-31T05:06:46.148Z,32.46
2022-08-31T05:07:49.391Z,32.41
2022-08-31T05:08:56.452Z,32.43
2022-08-31T05:09:58.414Z,32.66
2022-08-31T05:11:00.206Z,32.54
2022-08-31T05:12:02.204Z,32.38
2022-08-31T05:13:04.071Z,32.65
2022-08-31T05:14:07.891Z,32.70
2022-08-31T05:15:11.566Z,32.46
2022-08-31T05:16:16.223Z,32.57
2022-08-31T05:17:18.252Z,32.13
2022-08-31T05:18:20.177Z,32.38
2022-08-31T05:19:32.130Z,32.30
2022-08-31T05:20:34.395Z,31.92
2022-08-31T05:21:38.353Z,32.08
2022-08-31T05:22:41.082Z,32.30
2022-08-31T05:23:46.070Z,32.15
2022-08-31T05:24:48.284Z,32.32
2022-08-31T05:25:50.052Z,32.35
2022-08-31T05:26:54.537Z,32.00
2022-08-31T05:27:56.411Z,31.79
2022-08-31T05:29:00.530Z,31.60
2022-08-31T05:30:03.826Z,31.91
2022-08-31T05:31:23.515Z,31.70
2022-08-31T05:32:26.459Z,31.56
2022-08-31T05:33:30.291Z,31.43
2022-08-31T05:34:32.106Z,31.83
2022-08-31T05:35:35.074Z,31.74
2022-08-31T05:36:37.147Z,31.53
2022-08-31T05:37:40.846Z,31.36
2022-08-31T05:38:43.603Z,31.46
2022-08-31T05:39:47.328Z,31.65
2022-08-31T05:40:56.159Z,31.24
2022-08-31T05:41:58.230Z,31.17
2022-08-31T05:42:59.960Z,31.25
2022-08-31T05:44:05.855Z,30.99
2022-08-31T05:45:10.202Z,31.18
2022-08-31T05:46:17.194Z,31.09
2022-08-31T05:47:19.135Z,30.88
2022-08-31T05:48:22.142Z,30.74
2022-08-31T05:49:28.108Z,30.84
2022-08-31T05:50:30.782Z,30.81
2022-08-31T05:51:37.894Z,30.69
2022-08-31T05:52:40.760Z,30.77
2022-08-31T05:53:43.339Z,30.80
2022-08-31T05:54:46.274Z,30.69
2022-08-31T05:55:49.058Z,30.83
2022-08-31T05:56:50.935Z,30.74
2022-08-31T05:57:52.779Z,30.64
2022-08-31T05:58:56.211Z,30.75
2022-08-31T06:00:01.050Z,30.68
2022-08-31T06:01:03.803Z,30.81
2022-08-31T06:02:35.178Z,30.37
2022-08-31T06:03:36.976Z,30.58
2022-08-31T06:04:40.068Z,30.36
2022-08-31T06:05:42.588Z,30.63
2022-08-31T06:06:44.570Z,30.53
2022-08-31T06:07:48.510Z,30.53
2022-08-31T06:08:52.215Z,30.38
2022-08-31T06:09:54.435Z,30.09
2022-08-31T06:11:00.752Z,30.58
2022-08-31T06:12:04.117Z,30.51
2022-08-31T06:13:06.575Z,30.13
2022-08-31T06:14:10.807Z,30.36
2022-08-31T06:15:12.739Z,30.48
2022-08-31T06:16:15.177Z,30.69
2022-08-31T06:17:17.947Z,30.56
2022-08-31T06:18:22.522Z,30.46
2022-08-31T06:19:24.620Z,30.34
2022-08-31T06:20:28.058Z,30.48
2022-08-31T06:21:36.298Z,30.11
2022-08-31T06:22:38.911Z,30.30
2022-08-31T06:23:45.411Z,30.36
2022-08-31T06:24:47.367Z,30.22
2022-08-31T06:25:50.348Z,30.28
2022-08-31T06:26:59.223Z,30.34
2022-08-31T06:28:07.481Z,30.22
2022-08-31T06:29:09.525Z,30.34
2022-08-31T06:30:12.406Z,30.19
2022-08-31T06:31:18.603Z,30.17
2022-08-31T06:32:22.133Z,30.12
2022-08-31T06:33:32.543Z,29.70
2022-08-31T06:34:49.978Z,29.99
2022-08-31T06:36:18.232Z,30.25
2022-08-31T06:37:46.167Z,29.99
2022-08-31T06:39:12.514Z,29.86
2022-08-31T06:40:24.587Z,30.14
2022-08-31T06:41:52.657Z,29.82
2022-08-31T06:43:12.051Z,30.22
2022-08-31T06:44:43.371Z,29.71
2022-08-31T06:45:58.023Z,29.93
2022-08-31T06:47:24.002Z,29.99
2022-08-31T06:48:26.562Z,29.80
2022-08-31T06:49:28.571Z,29.95
2022-08-31T06:50:30.389Z,30.09
2022-08-31T06:51:36.779Z,30.04
2022-08-31T06:52:39.209Z,30.21
2022-08-31T06:54:16.101Z,30.10
2022-08-31T06:55:41.299Z,29.64
2022-08-31T06:57:03.016Z,30.07
2022-08-31T06:58:24.826Z,29.79
2022-08-31T06:59:30.090Z,30.15
2022-08-31T07:00:54.009Z,29.91
2022-08-31T07:02:00.620Z,30.01
2022-08-31T07:03:33.077Z,30.16
2022-08-31T07:04:38.564Z,30.11
2022-08-31T07:05:40.550Z,30.14
2022-08-31T07:06:44.388Z,30.03
2022-08-31T07:07:46.903Z,30.16
2022-08-31T07:08:52.263Z,30.06
2022-08-31T07:09:55.446Z,29.91
2022-08-31T07:10:57.593Z,30.11
2022-08-31T07:11:59.466Z,30.03
2022-08-31T07:13:01.244Z,29.93
2022-08-31T07:14:04.733Z,30.16
2022-08-31T07:15:07.930Z,30.06
2022-08-31T07:16:13.995Z,29.89
2022-08-31T07:17:16.110Z,29.78
2022-08-31T07:18:18.359Z,29.89
2022-08-31T07:19:22.179Z,30.01
2022-08-31T07:20:24.908Z,29.86
2022-08-31T07:21:33.140Z,29.84
2022-08-31T07:22:35.080Z,29.91
2022-08-31T07:23:58.132Z,29.84
2022-08-31T07:24:59.964Z,29.80
2022-08-31T07:26:14.620Z,29.78
2022-08-31T07:27:18.547Z,29.68
2022-08-31T07:28:25.480Z,29.56
2022-08-31T07:29:37.667Z,29.68
2022-08-31T07:30:42.248Z,29.51
2022-08-31T07:31:49.024Z,29.75
2022-08-31T07:32:56.497Z,29.57
2022-08-31T07:33:59.633Z,29.79
2022-08-31T07:35:02.313Z,29.83
2022-08-31T07:36:30.378Z,29.46
2022-08-31T07:37:57.467Z,29.47
2022-08-31T07:39:22.098Z,29.53
2022-08-31T07:40:42.511Z,29.38
2022-08-31T07:42:04.939Z,29.83
2022-08-31T07:43:07.270Z,29.54
2022-08-31T07:44:14.954Z,29.58
2022-08-31T07:45:23.458Z,29.45
2022-08-31T07:46:32.208Z,29.57
2022-08-31T07:47:43.202Z,29.38
2022-08-31T07:48:46.549Z,29.46
2022-08-31T07:50:06.951Z,29.21
2022-08-31T07:51:28.607Z,29.13
2022-08-31T07:52:54.408Z,29.10
2022-08-31T07:54:15.520Z,29.06
2022-08-31T07:55:23.945Z,29.18
2022-08-31T07:56:35.119Z,29.16
2022-08-31T07:58:03.505Z,29.14
2022-08-31T07:59:07.618Z,29.19
2022-08-31T08:00:21.025Z,29.27
2022-08-31T08:01:23.230Z,29.14
2022-08-31T08:02:29.201Z,29.22
2022-08-31T08:03:31.179Z,29.28
2022-08-31T08:04:53.395Z,29.32
2022-08-31T08:06:22.039Z,29.28
2022-08-31T08:07:55.023Z,29.14
2022-08-31T08:09:24.017Z,29.27
2022-08-31T08:10:52.181Z,29.29
2022-08-31T08:12:22.594Z,29.22
2022-08-31T08:13:54.435Z,29.30
2022-08-31T08:15:06.687Z,29.22
2022-08-31T08:16:27.037Z,29.14
2022-08-31T08:17:52.007Z,28.98
2022-08-31T08:18:59.139Z,29.16
2022-08-31T08:20:04.360Z,29.00
2022-08-31T08:21:08.283Z,29.12
2022-08-31T08:22:10.170Z,29.18
2022-08-31T08:23:32.779Z,28.93
2022-08-31T08:25:14.031Z,28.79
2022-08-31T08:26:30.523Z,28.93
2022-08-31T08:27:56.467Z,29.01
2022-08-31T08:29:06.975Z,29.12
2022-08-31T08:30:14.104Z,29.18
2022-08-31T08:31:18.659Z,28.80
2022-08-31T08:32:21.102Z,29.07
2022-08-31T08:33:25.076Z,29.05
2022-08-31T08:34:32.113Z,28.96
2022-08-31T08:35:37.034Z,28.91
2022-08-31T08:36:40.894Z,28.69
2022-08-31T08:37:58.444Z,28.78
2022-08-31T08:39:06.739Z,28.27
2022-08-31T08:40:26.768Z,28.35
2022-08-31T08:41:31.939Z,28.23
2022-08-31T08:42:34.067Z,28.51
2022-08-31T08:43:40.668Z,28.48
2022-08-31T08:44:46.412Z,28.42
2022-08-31T08:45:53.599Z,28.29
2022-08-31T08:47:06.886Z,28.24
2022-08-31T08:48:23.301Z,28.16
2022-08-31T08:49:50.884Z,27.89
2022-08-31T08:50:56.870Z,28.24
2022-08-31T08:52:12.739Z,27.94
2022-08-31T08:53:15.506Z,28.23
2022-08-31T08:54:34.572Z,28.20
2022-08-31T08:55:41.434Z,28.00
2022-08-31T08:56:47.772Z,27.88
2022-08-31T08:57:56.136Z,27.85
2022-08-31T08:58:58.050Z,27.96
2022-08-31T09:00:11.017Z,28.09
2022-08-31T09:01:23.784Z,27.79
2022-08-31T09:02:37.248Z,27.65
2022-08-31T09:03:56.558Z,27.85
2022-08-31T09:05:01.312Z,27.51
2022-08-31T09:06:54.670Z,27.80
2022-08-31T09:08:23.469Z,27.72
2022-08-31T09:09:38.069Z,27.90
2022-08-31T09:10:54.844Z,27.98
2022-08-31T09:12:14.870Z,28.39
2022-08-31T09:13:26.454Z,27.84
2022-08-31T09:14:37.967Z,28.07
2022-08-31T09:15:48.070Z,27.92
2022-08-31T09:17:32.546Z,28.26
2022-08-31T09:18:56.417Z,27.91
2022-08-31T09:20:05.740Z,27.83
2022-08-31T09:21:17.339Z,27.93
2022-08-31T09:22:19.352Z,28.01
2022-08-31T09:23:21.403Z,27.90
2022-08-31T09:24:27.564Z,27.94
2022-08-31T09:25:55.782Z,27.73
2022-08-31T09:27:18.421Z,27.70
2022-08-31T09:28:39.054Z,27.72
2022-08-31T09:29:45.066Z,27.75
2022-08-31T09:30:52.603Z,27.59
2022-08-31T09:32:07.162Z,27.65
2022-08-31T09:33:16.883Z,27.71
2022-08-31T09:34:52.327Z,27.74
2022-08-31T09:36:13.815Z,27.75
2022-08-31T09:37:23.890Z,27.93
2022-08-31T09:38:27.204Z,27.82
2022-08-31T09:39:33.004Z,27.86
2022-08-31T09:40:42.581Z,28.26
2022-08-31T09:41:46.489Z,28.04
2022-08-31T09:43:03.231Z,28.14
2022-08-31T09:44:35.348Z,28.10
2022-08-31T09:45:42.535Z,28.10
2022-08-31T09:46:49.682Z,27.83
2022-08-31T09:47:53.046Z,27.77
2022-08-31T09:48:58.443Z,28.03
2022-08-31T09:50:01.235Z,27.63
2022-08-31T09:51:06.595Z,27.77
2022-08-31T09:52:46.635Z,27.55
2022-08-31T09:54:07.039Z,27.60
2022-08-31T09:55:17.649Z,27.40
2022-08-31T09:56:22.042Z,27.45
2022-08-31T09:57:42.676Z,27.19
2022-08-31T09:58:53.430Z,27.54
2022-08-31T09:59:55.998Z,27.13
2022-08-31T10:00:58.128Z,27.10
2022-08-31T10:02:02.505Z,27.19
2022-08-31T10:03:12.225Z,27.39
2022-08-31T10:04:14.792Z,27.32
2022-08-31T10:05:40.681Z,27.48
2022-08-31T10:06:49.766Z,27.25
2022-08-31T10:08:04.532Z,27.39
2022-08-31T10:09:14.767Z,27.18
2022-08-31T10:10:31.469Z,27.23
2022-08-31T10:11:35.370Z,27.44
2022-08-31T10:12:53.114Z,27.44
2022-08-31T10:14:00.551Z,27.48
2022-08-31T10:15:13.519Z,27.45
2022-08-31T10:16:41.780Z,27.57
2022-08-31T10:18:14.249Z,27.60
2022-08-31T10:19:30.448Z,27.44
2022-08-31T10:20:39.716Z,27.41
2022-08-31T10:21:53.433Z,27.46
2022-08-31T10:23:14.418Z,27.43
2022-08-31T10:24:33.725Z,27.66
2022-08-31T10:25:47.127Z,27.44
2022-08-31T10:26:59.022Z,27.47
2022-08-31T10:28:12.209Z,28.02
2022-08-31T10:29:23.606Z,27.51
2022-08-31T10:30:56.236Z,27.71
2022-08-31T10:32:02.979Z,27.34
2022-08-31T10:33:25.406Z,27.53
2022-08-31T10:34:56.940Z,27.57
2022-08-31T10:36:00.658Z,27.34
2022-08-31T10:37:14.945Z,27.61
2022-08-31T10:38:34.756Z,27.66
2022-08-31T10:39:45.050Z,27.43
2022-08-31T10:41:11.775Z,27.31
2022-08-31T10:42:44.964Z,27.29
2022-08-31T10:44:01.728Z,27.33
2022-08-31T10:45:08.032Z,27.02
2022-08-31T10:46:09.832Z,27.11
2022-08-31T10:47:14.362Z,27.03
2022-08-31T10:48:26.236Z,26.92
2022-08-31T10:49:28.788Z,26.97
2022-08-31T10:50:45.263Z,27.03
2022-08-31T10:51:53.277Z,26.92
2022-08-31T10:53:13.779Z,26.97
2022-08-31T10:54:47.587Z,26.76
2022-08-31T10:55:56.719Z,26.55
2022-08-31T10:57:31.489Z,26.75
2022-08-31T10:58:46.659Z,26.75
2022-08-31T10:59:58.815Z,26.45
2022-08-31T11:01:09.984Z,26.93
2022-08-31T11:02:31.059Z,26.92
2022-08-31T11:03:35.870Z,26.96
2022-08-31T11:04:58.644Z,26.99
2022-08-31T11:06:17.592Z,26.92
2022-08-31T11:07:37.531Z,27.11
2022-08-31T11:08:52.734Z,27.05
2022-08-31T11:10:16.671Z,27.20
2022-08-31T11:11:32.051Z,27.05
2022-08-31T11:12:44.275Z,27.10
2022-08-31T11:14:14.766Z,26.99
2022-08-31T11:15:25.720Z,27.04
2022-08-31T11:16:38.812Z,27.24
2022-08-31T11:17:50.130Z,27.42
2022-08-31T11:19:09.457Z,27.69
2022-08-31T11:20:22.162Z,27.57
2022-08-31T11:21:37.222Z,27.72
2022-08-31T11:23:09.833Z,27.86
2022-08-31T11:24:20.782Z,27.63
2022-08-31T11:25:37.748Z,28.07
2022-08-31T11:26:51.543Z,27.66
2022-08-31T11:28:05.873Z,28.00
2022-08-31T11:29:27.189Z,27.73
2022-08-31T11:30:31.742Z,27.77
2022-08-31T11:31:34.655Z,27.91
2022-08-31T11:32:47.741Z,27.98
2022-08-31T11:34:16.160Z,27.79
2022-08-31T11:35:48.206Z,27.40
2022-08-31T11:36:54.825Z,27.27
2022-08-31T11:37:57.191Z,26.85
2022-08-31T11:39:01.898Z,27.31
2022-08-31T11:40:04.147Z,27.30
2022-08-31T11:41:06.159Z,27.14
2022-08-31T11:42:12.617Z,27.16
2022-08-31T11:43:32.695Z,27.04
2022-08-31T11:44:39.395Z,26.95
2022-08-31T11:45:42.921Z,26.73
2022-08-31T11:47:01.048Z,27.02
2022-08-31T11:48:05.604Z,26.95
2022-08-31T11:49:10.925Z,26.86
2022-08-31T11:50:32.583Z,26.88
2022-08-31T11:51:48.145Z,26.63
2022-08-31T11:52:53.719Z,26.96
2022-08-31T11:53:55.716Z,26.66
2022-08-31T11:55:06.859Z,26.93
2022-08-31T11:56:09.349Z,26.92
2022-08-31T11:57:15.844Z,26.70
2022-08-31T11:58:32.791Z,26.85
2022-08-31T11:59:40.847Z,26.70
2022-08-31T12:00:59.007Z,26.62
2022-08-31T12:02:21.240Z,26.51
2022-08-31T12:03:33.932Z,26.57
2022-08-31T12:04:46.194Z,26.58
2022-08-31T12:05:58.140Z,26.75
2022-08-31T12:07:04.257Z,26.63
2022-08-31T12:08:15.394Z,26.76
2022-08-31T12:09:38.839Z,26.80
2022-08-31T12:10:57.241Z,26.89
2022-08-31T12:12:06.970Z,26.63
2022-08-31T12:13:28.051Z,26.78
2022-08-31T12:14:41.087Z,26.36
2022-08-31T12:16:07.690Z,26.84
2022-08-31T12:17:24.195Z,26.78
2022-08-31T12:18:56.479Z,26.98
2022-08-31T12:20:14.022Z,27.03
2022-08-31T12:21:56.171Z,27.01
2022-08-31T12:23:36.485Z,26.98
2022-08-31T12:24:55.322Z,27.12
2022-08-31T12:26:34.615Z,26.99
2022-08-31T12:27:46.771Z,26.72
2022-08-31T12:29:00.488Z,26.67
2022-08-31T12:30:31.690Z,26.91
2022-08-31T12:31:35.109Z,26.75
2022-08-31T12:32:41.521Z,26.99
2022-08-31T12:34:01.666Z,26.79
2022-08-31T12:35:03.436Z,26.72
2022-08-31T12:36:33.607Z,26.71
2022-08-31T12:37:37.164Z,26.78
2022-08-31T12:38:38.960Z,26.73
2022-08-31T12:39:40.730Z,26.82
2022-08-31T12:40:45.756Z,26.91
2022-08-31T12:41:55.910Z,26.81
2022-08-31T12:43:00.383Z,26.96
2022-08-31T12:44:03.774Z,26.81
2022-08-31T12:45:07.659Z,26.91
2022-08-31T12:46:27.398Z,26.62
2022-08-31T12:48:39.803Z,26.79
2022-08-31T12:49:41.540Z,26.53
2022-08-31T12:51:08.025Z,26.81
2022-08-31T12:52:12.606Z,26.75
2022-08-31T12:53:35.335Z,27.01
2022-08-31T12:54:46.831Z,26.63
2022-08-31T12:56:01.355Z,26.84
2022-08-31T12:57:25.740Z,27.06
2022-08-31T12:58:53.118Z,26.59
2022-08-31T13:00:11.767Z,26.94
2022-08-31T13:01:21.765Z,27.16
2022-08-31T13:02:24.438Z,27.21
2022-08-31T13:03:31.799Z,26.91
2022-08-31T13:04:33.998Z,27.36
2022-08-31T13:05:38.339Z,27.37
2022-08-31T13:06:42.090Z,26.94
2022-08-31T13:07:43.984Z,27.12
2022-08-31T13:08:48.485Z,27.27
2022-08-31T13:10:09.970Z,27.06
2022-08-31T13:11:42.616Z,27.14
2022-08-31T13:12:53.776Z,27.21
2022-08-31T13:14:07.584Z,27.05
2022-08-31T13:15:21.031Z,27.22
2022-08-31T13:16:23.523Z,27.16
2022-08-31T13:17:35.523Z,27.40
2022-08-31T13:18:37.378Z,27.31
2022-08-31T13:19:49.965Z,27.29
2022-08-31T13:21:05.902Z,27.22
2022-08-31T13:22:16.199Z,27.43
2022-08-31T13:23:38.556Z,27.46
2022-08-31T13:24:53.464Z,27.39
2022-08-31T13:26:05.845Z,27.60
2022-08-31T13:27:23.836Z,27.40
2022-08-31T13:28:30.495Z,27.46
2022-08-31T13:29:41.132Z,27.31
2022-08-31T13:30:54.929Z,27.44
2022-08-31T13:31:59.911Z,27.06
2022-08-31T13:33:11.762Z,27.42
2022-08-31T13:34:19.431Z,27.01
2022-08-31T13:35:25.963Z,27.32
2022-08-31T13:36:32.370Z,27.48
2022-08-31T13:37:40.395Z,27.28
2022-08-31T13:38:53.334Z,27.31
2022-08-31T13:39:56.055Z,27.22
2022-08-31T13:40:57.888Z,27.27
2022-08-31T13:42:09.712Z,27.24
2022-08-31T13:43:27.643Z,27.39
2022-08-31T13:44:31.861Z,27.06
2022-08-31T13:45:35.934Z,27.13
2022-08-31T13:46:43.822Z,27.14
2022-08-31T13:47:57.611Z,27.27
2022-08-31T13:49:02.219Z,27.27
2022-08-31T13:50:13.310Z,27.69
2022-08-31T13:51:20.050Z,27.28
2022-08-31T13:52:31.479Z,27.15
2022-08-31T13:53:46.544Z,27.25
2022-08-31T13:55:02.004Z,27.03
2022-08-31T13:56:47.404Z,27.26
2022-08-31T13:58:00.738Z,27.10
2022-08-31T13:59:28.063Z,27.14
2022-08-31T14:00:42.899Z,26.95
2022-08-31T14:02:07.928Z,27.03
2022-08-31T14:03:35.622Z,26.99
2022-08-31T14:04:49.662Z,26.87
2022-08-31T14:05:55.286Z,26.76
2022-08-31T14:06:58.093Z,26.89
2022-08-31T14:08:02.751Z,27.21
2022-08-31T14:09:17.176Z,27.17
2022-08-31T14:10:35.233Z,27.21
2022-08-31T14:11:37.170Z,27.01
2022-08-31T14:12:52.615Z,27.14
2022-08-31T14:13:55.719Z,26.73
2022-08-31T14:14:59.569Z,27.32
2022-08-31T14:16:03.006Z,27.21
2022-08-31T14:17:04.903Z,27.12
2022-08-31T14:18:27.484Z,27.09
2022-08-31T14:19:31.102Z,26.96
2022-08-31T14:20:36.121Z,27.02
2022-08-31T14:21:42.190Z,27.16
2022-08-31T14:22:45.411Z,27.25
2022-08-31T14:24:09.162Z,27.21
2022-08-31T14:25:12.345Z,27.08
2022-08-31T14:26:17.701Z,27.02
2022-08-31T14:27:19.642Z,27.16
2022-08-31T14:28:28.206Z,27.07
2022-08-31T14:29:29.946Z,27.20
2022-08-31T14:30:35.661Z,27.22
2022-08-31T14:31:53.767Z,27.45
2022-08-31T14:32:58.211Z,27.34
2022-08-31T14:34:20.415Z,27.40
2022-08-31T14:35:24.811Z,27.24
2022-08-31T14:36:27.954Z,27.14
2022-08-31T14:37:30.894Z,27.51
2022-08-31T14:38:32.735Z,27.35
2022-08-31T14:39:36.936Z,27.30
2022-08-31T14:40:38.874Z,27.23
2022-08-31T14:41:40.753Z,27.17
2022-08-31T14:42:44.349Z,27.14
2022-08-31T14:43:47.806Z,27.13
2022-08-31T14:45:03.235Z,27.33
2022-08-31T14:46:06.100Z,27.33
2022-08-31T14:47:11.706Z,27.44
2022-08-31T14:48:19.353Z,27.08
2022-08-31T14:49:21.587Z,27.00
2022-08-31T14:50:26.385Z,26.94
2022-08-31T14:51:28.320Z,27.03